Time;durP1;ratioP1;P1;durP2;ratioP2;P2;SDS_P1;SDS_P2;PMS_P1;PMS_P2;Temp;Humidity;BMP_temperature;BMP_pressure;BME280_temperature;BME280_humidity;BME280_pressure;Samples;Min_cycle;Max_cycle;Signal;HPM_P1;HPM_P2
2023/04/28 00:01:48;;;;;;;8.63;4.40;;;6.50;99.90;;;;;;5071954;28;20084;-75
2023/04/28 00:04:13;;;;;;;9.70;4.60;;;6.60;99.90;;;;;;5054797;28;20289;-74
2023/04/28 00:06:39;;;;;;;7.63;4.43;;;6.50;99.90;;;;;;5071847;28;20036;-75
2023/04/28 00:09:09;;;;;;;7.50;4.00;;;6.40;99.90;;;;;;5071478;28;20504;-74
2023/04/28 00:11:37;;;;;;;7.28;4.65;;;6.40;99.90;;;;;;5055559;28;20040;-74
2023/04/28 00:14:03;;;;;;;8.07;4.20;;;6.40;99.90;;;;;;5071353;28;20373;-75
2023/04/28 00:16:29;;;;;;;8.43;4.30;;;6.30;99.90;;;;;;5052473;28;20047;-75
2023/04/28 00:18:55;;;;;;;6.85;4.35;;;6.40;99.90;;;;;;5071529;28;20042;-75
2023/04/28 00:21:21;;;;;;;6.93;4.05;;;6.30;99.90;;;;;;5055085;28;20062;-74
2023/04/28 00:23:46;;;;;;;10.18;4.45;;;6.30;99.90;;;;;;5071420;28;20040;-75
2023/04/28 00:26:12;;;;;;;6.30;3.93;;;6.30;99.90;;;;;;5038003;28;20046;-75
2023/04/28 00:28:38;;;;;;;7.75;4.38;;;6.30;99.90;;;;;;5071603;28;20277;-75
2023/04/28 00:31:11;;;;;;;7.22;4.55;;;6.30;99.90;;;;;;5040978;28;20036;-74
2023/04/28 00:33:37;;;;;;;8.25;4.43;;;6.30;99.90;;;;;;5058833;28;20036;-74
2023/04/28 00:36:03;;;;;;;7.03;4.20;;;6.30;99.90;;;;;;5074579;28;20040;-75
2023/04/28 00:38:29;;;;;;;8.52;4.25;;;6.30;99.90;;;;;;5058315;28;20108;-74
2023/04/28 00:40:55;;;;;;;10.10;5.10;;;6.30;99.90;;;;;;5074805;28;20047;-74
2023/04/28 00:43:21;;;;;;;8.18;4.80;;;6.20;99.90;;;;;;5074225;28;20131;-75
2023/04/28 00:45:48;;;;;;;8.10;4.47;;;6.20;99.90;;;;;;5074985;28;20122;-75
2023/04/28 00:48:14;;;;;;;7.50;4.03;;;6.30;99.90;;;;;;5074235;28;20360;-75
2023/04/28 00:50:41;;;;;;;6.25;4.07;;;6.20;99.90;;;;;;5074968;28;20135;-75
2023/04/28 00:53:07;;;;;;;7.53;4.40;;;6.20;99.90;;;;;;5073714;28;20036;-75
2023/04/28 00:55:34;;;;;;;8.20;4.47;;;6.30;99.90;;;;;;5073953;28;20505;-75
2023/04/28 00:58:01;;;;;;;8.57;4.18;;;6.20;99.90;;;;;;5073563;28;20282;-75
2023/04/28 01:00:26;;;;;;;8.75;4.53;;;6.20;99.90;;;;;;5073696;28;20047;-75
2023/04/28 01:02:53;;;;;;;8.70;4.63;;;6.20;99.90;;;;;;5073905;28;20040;-74
2023/04/28 01:05:20;;;;;;;9.13;4.43;;;6.20;99.90;;;;;;5073603;28;20516;-74
2023/04/28 01:07:45;;;;;;;7.28;4.10;;;6.10;99.90;;;;;;5073713;28;20126;-75
2023/04/28 01:10:11;;;;;;;7.63;4.55;;;6.10;99.90;;;;;;5056892;28;20127;-75
2023/04/28 01:12:37;;;;;;;8.40;4.57;;;6.10;99.90;;;;;;5073434;28;20068;-75
2023/04/28 01:15:03;;;;;;;8.47;4.87;;;6.10;99.90;;;;;;5073262;28;20302;-74
2023/04/28 01:17:28;;;;;;;9.02;5.45;;;6.00;99.90;;;;;;5074491;28;20040;-74
2023/04/28 01:19:54;;;;;;;7.13;4.40;;;6.10;99.90;;;;;;5057172;28;20032;-74
2023/04/28 01:22:20;;;;;;;9.45;5.40;;;6.10;99.90;;;;;;5073547;28;20465;-75
2023/04/28 01:24:46;;;;;;;9.83;5.00;;;6.00;99.90;;;;;;5057326;28;20040;-75
2023/04/28 01:27:11;;;;;;;9.20;4.67;;;5.90;99.90;;;;;;5023820;28;20470;-75
2023/04/28 01:29:37;;;;;;;9.97;5.50;;;6.20;99.90;;;;;;5057278;28;20286;-74
2023/04/28 01:32:03;;;;;;;8.57;4.90;;;6.00;99.90;;;;;;5073569;28;20040;-74
2023/04/28 01:34:28;;;;;;;8.50;4.93;;;6.00;99.90;;;;;;5057128;28;20028;-75
2023/04/28 01:36:55;;;;;;;10.10;5.15;;;6.00;99.90;;;;;;5073912;28;20040;-74
2023/04/28 01:39:21;;;;;;;7.93;4.60;;;5.90;99.90;;;;;;5056549;28;20040;-75
2023/04/28 01:41:46;;;;;;;12.00;5.05;;;6.00;99.90;;;;;;5073186;28;20035;-74
2023/04/28 01:44:12;;;;;;;10.97;5.40;;;5.90;99.90;;;;;;5073600;28;20158;-74
2023/04/28 01:46:38;;;;;;;10.05;5.00;;;5.90;99.90;;;;;;5056945;28;20051;-74
2023/04/28 01:49:03;;;;;;;6.72;4.45;;;5.90;99.90;;;;;;5073295;28;20035;-75
2023/04/28 01:51:30;;;;;;;10.10;5.40;;;5.90;99.90;;;;;;5056997;28;20513;-74
2023/04/28 01:53:55;;;;;;;10.30;5.07;;;6.00;99.90;;;;;;5073582;28;20309;-75
2023/04/28 01:56:21;;;;;;;9.23;5.47;;;5.90;99.90;;;;;;5072927;28;20044;-75
2023/04/28 01:58:47;;;;;;;9.52;5.28;;;6.00;99.90;;;;;;5057138;28;20042;-75
2023/04/28 02:01:12;;;;;;;11.57;5.65;;;5.80;99.90;;;;;;5070610;28;20051;-75
2023/04/28 02:03:38;;;;;;;11.53;5.40;;;5.80;99.90;;;;;;5073111;28;20505;-74
2023/04/28 02:06:04;;;;;;;10.65;5.60;;;5.70;99.90;;;;;;5073114;28;20073;-75
2023/04/28 02:08:30;;;;;;;9.30;5.43;;;5.70;99.90;;;;;;5056435;28;20040;-75
2023/04/28 02:10:56;;;;;;;13.65;5.97;;;5.70;99.90;;;;;;5073224;28;20048;-75
2023/04/28 02:13:22;;;;;;;10.60;5.68;;;5.70;99.90;;;;;;5055942;28;20170;-74
2023/04/28 02:15:48;;;;;;;11.55;6.28;;;5.70;99.90;;;;;;5072848;28;20127;-75
2023/04/28 02:18:14;;;;;;;12.35;7.00;;;5.70;99.90;;;;;;5056196;28;20077;-75
2023/04/28 02:20:40;;;;;;;10.63;6.30;;;5.70;99.90;;;;;;5073356;28;20043;-75
2023/04/28 02:23:05;;;;;;;11.30;6.20;;;5.70;99.90;;;;;;5072846;28;20114;-76
2023/04/28 02:25:31;;;;;;;13.40;6.50;;;5.70;99.90;;;;;;5072286;28;20297;-74
2023/04/28 02:27:58;;;;;;;12.00;6.80;;;5.70;99.90;;;;;;5072963;28;20282;-75
2023/04/28 02:30:23;;;;;;;14.52;6.35;;;5.70;99.90;;;;;;5072592;28;20040;-74
2023/04/28 02:32:49;;;;;;;13.70;6.90;;;5.70;99.90;;;;;;5072583;28;20051;-74
2023/04/28 02:35:15;;;;;;;13.38;6.57;;;5.70;99.90;;;;;;5072339;28;20028;-75
2023/04/28 02:37:40;;;;;;;12.45;6.93;;;5.70;99.90;;;;;;5056268;28;20040;-75
2023/04/28 02:40:07;;;;;;;13.33;7.20;;;5.70;99.90;;;;;;5072483;28;20039;-74
2023/04/28 02:42:33;;;;;;;16.42;8.10;;;5.70;99.90;;;;;;5055806;28;20310;-74
2023/04/28 02:44:58;;;;;;;18.83;7.13;;;5.70;99.90;;;;;;5072208;28;20075;-74
2023/04/28 02:47:24;;;;;;;18.03;7.83;;;5.60;99.90;;;;;;5038989;28;20039;-74
2023/04/28 02:49:49;;;;;;;14.27;6.90;;;5.70;99.90;;;;;;5072840;28;20335;-74
2023/04/28 02:52:15;;;;;;;13.97;7.23;;;5.70;99.90;;;;;;5071331;28;20122;-74
2023/04/28 02:54:41;;;;;;;14.90;7.87;;;5.70;99.90;;;;;;5055635;28;20347;-75
2023/04/28 02:57:06;;;;;;;16.50;7.37;;;5.80;99.90;;;;;;5072348;28;20132;-75
2023/04/28 02:59:32;;;;;;;20.20;8.57;;;5.70;99.90;;;;;;5072190;28;20306;-74
2023/04/28 03:02:00;;;;;;;18.23;8.85;;;5.70;99.90;;;;;;5072362;28;20063;-75
2023/04/28 03:04:26;;;;;;;14.35;8.05;;;5.70;99.90;;;;;;5055194;28;20118;-75
2023/04/28 03:06:52;;;;;;;16.40;7.90;;;5.80;99.90;;;;;;5072242;28;20115;-75
2023/04/28 03:09:18;;;;;;;21.77;9.33;;;5.70;99.90;;;;;;5071898;28;20047;-75
2023/04/28 03:11:43;;;;;;;20.37;9.83;;;5.70;99.90;;;;;;5055570;28;20857;-75
2023/04/28 03:14:10;;;;;;;18.35;9.52;;;5.70;99.90;;;;;;5072206;28;20044;-75
2023/04/28 03:16:36;;;;;;;18.23;8.98;;;5.70;99.90;;;;;;5071491;28;20091;-75
2023/04/28 03:19:02;;;;;;;;;;;5.80;99.90;;;;;;5072562;28;20040;-75
2023/04/28 03:21:28;;;;;;;20.30;9.07;;;5.80;99.90;;;;;;5071681;28;20050;-75
2023/04/28 03:23:54;;;;;;;;;;;5.80;99.90;;;;;;5072691;28;20055;-75
2023/04/28 03:26:20;;;;;;;21.15;9.15;;;5.80;99.90;;;;;;5071770;28;19936;-75
2023/04/28 03:28:46;;;;;;;18.48;8.95;;;6.10;99.90;;;;;;5055917;28;20122;-75
2023/04/28 03:31:11;;;;;;;20.10;9.85;;;5.90;99.90;;;;;;5071923;28;20047;-75
2023/04/28 03:33:37;;;;;;;20.73;9.13;;;5.90;99.90;;;;;;5071421;28;20382;-74
2023/04/28 03:36:03;;;;;;;18.37;9.03;;;5.90;99.90;;;;;;5071607;28;20280;-75
2023/04/28 03:38:29;;;;;;;21.17;10.02;;;5.90;99.90;;;;;;5071306;28;20040;-75
2023/04/28 03:40:54;;;;;;;19.50;9.37;;;5.90;99.90;;;;;;5055710;28;20048;-74
2023/04/28 03:43:20;;;;;;;19.45;9.88;;;6.10;99.90;;;;;;5071410;28;20278;-74
2023/04/28 03:45:46;;;;;;;19.83;10.20;;;5.90;99.90;;;;;;5038880;28;20085;-75
2023/04/28 03:48:11;;;;;;;19.67;9.88;;;6.00;99.90;;;;;;5071704;28;20378;-75
2023/04/28 03:50:39;;;;;;;21.10;9.13;;;5.90;99.90;;;;;;5054947;28;20377;-74
2023/04/28 03:53:05;;;;;;;20.90;10.45;;;5.90;99.90;;;;;;5055588;28;20047;-74
2023/04/28 03:55:31;;;;;;;19.43;9.33;;;5.90;99.90;;;;;;5054649;28;20044;-74
2023/04/28 03:57:56;;;;;;;23.33;10.30;;;5.90;99.90;;;;;;5071596;28;20075;-75
2023/04/28 04:00:22;;;;;;;22.98;9.75;;;5.80;99.90;;;;;;5054737;28;20036;-74
2023/04/28 04:02:48;;;;;;;21.47;9.60;;;6.20;99.90;;;;;;5072270;28;20036;-75
2023/04/28 04:05:14;;;;;;;22.63;9.97;;;5.90;99.90;;;;;;5075064;28;20047;-75
2023/04/28 04:07:39;;;;;;;17.58;9.05;;;5.90;99.90;;;;;;5058155;28;20808;-75
2023/04/28 04:10:06;;;;;;;22.80;9.45;;;5.90;99.90;;;;;;5075392;28;20529;-75
2023/04/28 04:12:31;;;;;;;20.08;9.57;;;5.90;99.90;;;;;;5075329;28;20051;-73
2023/04/28 04:14:57;;;;;;;20.50;9.23;;;6.10;99.90;;;;;;5058593;28;20043;-75
2023/04/28 04:17:22;;;;;;;19.53;10.10;;;6.00;99.90;;;;;;5074722;28;20052;-76
2023/04/28 04:19:48;;;;;;;17.05;8.43;;;5.90;99.90;;;;;;5058832;28;20032;-75
2023/04/28 04:22:14;;;;;;;15.77;8.80;;;5.90;99.90;;;;;;5075308;28;20040;-75
2023/04/28 04:24:40;;;;;;;19.90;8.95;;;5.90;99.90;;;;;;5074749;28;20064;-74
2023/04/28 04:27:05;;;;;;;19.20;8.97;;;5.90;99.90;;;;;;5058563;28;20047;-75
2023/04/28 04:29:31;;;;;;;19.43;9.20;;;5.90;99.90;;;;;;5074568;28;20286;-75
2023/04/28 04:31:56;;;;;;;21.70;10.18;;;5.90;99.90;;;;;;5074996;28;20032;-75
2023/04/28 04:34:22;;;;;;;20.97;9.43;;;6.00;99.90;;;;;;5057942;28;20079;-75
2023/04/28 04:36:48;;;;;;;22.37;9.63;;;5.90;99.90;;;;;;5058387;28;20073;-75
2023/04/28 04:39:14;;;;;;;20.13;8.63;;;6.10;99.90;;;;;;5058238;28;20292;-76
2023/04/28 04:41:41;;;;;;;23.85;9.05;;;5.90;99.90;;;;;;5074707;28;20505;-75
2023/04/28 04:44:06;;;;;;;;;;;5.90;99.90;;;;;;5075302;28;20032;-76
2023/04/28 04:46:32;;;;;;;20.45;10.15;;;5.90;99.90;;;;;;5074348;28;19927;-76
2023/04/28 04:48:57;;;;;;;17.80;8.90;;;5.90;99.90;;;;;;5058059;28;20040;-76
2023/04/28 04:51:23;;;;;;;22.90;10.80;;;5.80;99.90;;;;;;5074851;28;20079;-75
2023/04/28 04:53:49;;;;;;;17.27;9.27;;;5.90;99.90;;;;;;5075156;28;20040;-75
2023/04/28 04:56:14;;;;;;;17.77;8.53;;;5.90;99.90;;;;;;5075186;28;20286;-75
2023/04/28 04:58:43;;;;;;;20.00;8.80;;;5.80;99.90;;;;;;5074527;28;20032;-75
2023/04/28 05:01:09;;;;;;;18.20;8.98;;;6.00;99.90;;;;;;5074830;28;20282;-75
2023/04/28 05:03:35;;;;;;;17.48;9.02;;;5.90;99.90;;;;;;5074329;28;20039;-76
2023/04/28 05:06:02;;;;;;;17.02;8.63;;;5.80;99.90;;;;;;5057871;28;20485;-75
2023/04/28 05:08:28;;;;;;;21.73;9.40;;;5.90;99.90;;;;;;5057397;28;20062;-75
2023/04/28 05:10:53;;;;;;;18.10;8.77;;;6.00;99.90;;;;;;5074661;28;20036;-75
2023/04/28 05:13:19;;;;;;;18.77;8.87;;;6.10;99.90;;;;;;5074586;28;20516;-75
2023/04/28 05:15:45;;;;;;;17.88;9.77;;;5.90;99.90;;;;;;5056697;28;20130;-75
2023/04/28 05:18:12;;;;;;;16.48;8.55;;;5.90;99.90;;;;;;5074269;28;20040;-75
2023/04/28 05:20:38;;;;;;;19.85;8.48;;;5.90;99.90;;;;;;5074154;28;20032;-74
2023/04/28 05:23:05;;;;;;;18.48;9.07;;;6.10;99.90;;;;;;5074624;28;20111;-76
2023/04/28 05:25:31;;;;;;;16.92;8.70;;;5.90;99.90;;;;;;5073882;28;20050;-76
2023/04/28 05:27:57;;;;;;;17.70;8.48;;;6.00;99.90;;;;;;5074271;28;20075;-74
2023/04/28 05:30:23;;;;;;;17.23;8.10;;;6.00;99.90;;;;;;5074565;28;20072;-76
2023/04/28 05:32:48;;;;;;;18.50;9.03;;;6.10;99.90;;;;;;5074126;28;20089;-76
2023/04/28 05:35:14;;;;;;;21.17;9.20;;;6.00;99.90;;;;;;5041012;28;20805;-74
2023/04/28 05:37:42;;;;;;;19.88;8.48;;;6.00;99.90;;;;;;5073396;28;20036;-74
2023/04/28 05:40:08;;;;;;;15.43;8.18;;;6.10;99.90;;;;;;5091750;28;20040;-75
2023/04/28 05:42:34;;;;;;;17.58;9.05;;;6.20;99.90;;;;;;5072991;28;20032;-75
2023/04/28 05:45:00;;;;;;;16.67;8.90;;;6.20;99.90;;;;;;5073549;28;20036;-75
2023/04/28 05:47:26;;;;;;;20.97;8.93;;;6.20;99.90;;;;;;5056046;28;20081;-76
2023/04/28 05:49:51;;;;;;;17.37;8.07;;;6.30;99.90;;;;;;5073189;28;20320;-76
2023/04/28 05:52:17;;;;;;;21.47;8.70;;;6.30;99.90;;;;;;5056778;28;20868;-76
2023/04/28 05:54:42;;;;;;;18.10;9.30;;;6.30;99.90;;;;;;5057142;28;20067;-75
2023/04/28 05:57:08;;;;;;;16.37;8.23;;;6.30;99.90;;;;;;5057090;28;20290;-76
2023/04/28 05:59:34;;;;;;;16.47;7.97;;;6.30;99.90;;;;;;5073531;28;20040;-75
2023/04/28 06:01:59;;;;;;;16.77;8.13;;;6.30;99.90;;;;;;5073592;28;20068;-75
2023/04/28 06:04:25;;;;;;;20.10;9.13;;;6.40;99.90;;;;;;5057335;28;20127;-75
2023/04/28 06:06:51;;;;;;;18.67;7.70;;;6.30;99.90;;;;;;5056402;28;20052;-76
2023/04/28 06:09:17;;;;;;;15.07;7.90;;;6.40;99.90;;;;;;5073618;28;20579;-75
2023/04/28 06:11:42;;;;;;;12.90;6.83;;;6.50;99.90;;;;;;5073212;28;20040;-75
2023/04/28 06:14:08;;;;;;;13.23;7.43;;;6.60;99.90;;;;;;5056979;28;20044;-75
2023/04/28 06:16:34;;;;;;;15.47;7.73;;;6.60;99.90;;;;;;5072969;28;20448;-75
2023/04/28 06:19:00;;;;;;;17.33;8.57;;;6.60;99.90;;;;;;5073393;28;20373;-75
2023/04/28 06:21:28;;;;;;;13.20;7.38;;;6.60;99.90;;;;;;5057169;28;20059;-76
2023/04/28 06:23:53;;;;;;;14.32;7.55;;;6.60;99.90;;;;;;5057030;28;20156;-75
2023/04/28 06:26:19;;;;;;;13.27;7.03;;;6.70;99.90;;;;;;5073220;28;20032;-75
2023/04/28 06:28:45;;;;;;;16.02;6.90;;;6.70;99.90;;;;;;5039384;28;20051;-74
2023/04/28 06:31:11;;;;;;;14.82;8.02;;;6.80;99.90;;;;;;5073216;28;20070;-75
2023/04/28 06:33:36;;;;;;;13.13;7.03;;;6.80;99.90;;;;;;5055847;28;20043;-75
2023/04/28 06:36:03;;;;;;;13.63;7.07;;;6.90;99.90;;;;;;5072811;28;20308;-76
2023/04/28 06:38:28;;;;;;;13.82;6.63;;;6.90;99.90;;;;;;5072763;28;20032;-76
2023/04/28 06:40:54;;;;;;;15.40;7.57;;;6.90;99.90;;;;;;5055233;28;20497;-75
2023/04/28 06:43:20;;;;;;;14.23;7.37;;;7.00;99.90;;;;;;5056571;28;20039;-76
2023/04/28 06:45:45;;;;;;;19.03;7.83;;;7.00;99.90;;;;;;5073066;28;20275;-75
2023/04/28 06:48:11;;;;;;;15.47;7.93;;;7.10;99.90;;;;;;5056553;28;20278;-74
2023/04/28 06:50:37;;;;;;;15.38;7.97;;;7.10;99.90;;;;;;5055205;28;20609;-75
2023/04/28 06:53:03;;;;;;;12.30;6.80;;;7.10;99.90;;;;;;5071903;28;20044;-75
2023/04/28 06:55:28;;;;;;;13.47;6.93;;;7.20;99.90;;;;;;5055542;28;20089;-75
2023/04/28 06:57:54;;;;;;;15.43;7.70;;;7.20;99.90;;;;;;5072321;28;20063;-75
2023/04/28 07:00:20;;;;;;;13.20;6.72;;;7.20;99.90;;;;;;5055759;28;20274;-75
2023/04/28 07:02:46;;;;;;;12.90;7.32;;;7.40;99.90;;;;;;5072293;28;20039;-75
2023/04/28 07:05:12;;;;;;;14.07;6.67;;;7.50;99.90;;;;;;5072298;28;20508;-75
2023/04/28 07:07:38;;;;;;;12.88;6.88;;;7.50;99.90;;;;;;5072954;28;20298;-75
2023/04/28 07:10:05;;;;;;;13.23;6.57;;;7.60;99.90;;;;;;5072401;28;20036;-76
2023/04/28 07:12:31;;;;;;;14.63;6.72;;;7.70;99.90;;;;;;5055890;28;20473;-75
2023/04/28 07:14:56;;;;;;;14.40;7.18;;;7.70;99.90;;;;;;5071836;28;20044;-75
2023/04/28 07:17:22;;;;;;;14.20;7.90;;;7.70;99.90;;;;;;5055881;28;20048;-75
2023/04/28 07:19:49;;;;;;;13.73;7.23;;;7.90;99.90;;;;;;5072330;28;20286;-75
2023/04/28 07:22:16;;;;;;;14.32;7.18;;;8.00;99.90;;;;;;5073065;28;20367;-75
2023/04/28 07:24:41;;;;;;;10.07;6.32;;;8.00;99.90;;;;;;5072178;28;20052;-75
2023/04/28 07:27:07;;;;;;;10.55;6.20;;;8.10;99.90;;;;;;5072733;28;20044;-75
2023/04/28 07:29:34;;;;;;;14.40;7.30;;;8.20;99.90;;;;;;5072605;28;20040;-75
2023/04/28 07:32:04;;;;;;;9.88;5.60;;;8.30;99.90;;;;;;5055033;28;20066;-75
2023/04/28 07:34:30;;;;;;;15.80;6.97;;;8.20;99.90;;;;;;5053618;28;20102;-75
2023/04/28 07:36:56;;;;;;;11.73;6.28;;;8.30;99.90;;;;;;5072086;28;20517;-75
2023/04/28 07:39:21;;;;;;;14.05;7.22;;;8.30;99.90;;;;;;5074311;28;20048;-75
2023/04/28 07:41:47;;;;;;;10.40;6.57;;;8.20;99.90;;;;;;5076251;28;20472;-75
2023/04/28 07:44:13;;;;;;;13.30;7.07;;;8.20;99.90;;;;;;5059888;28;20282;-75
2023/04/28 07:46:38;;;;;;;13.17;7.23;;;8.30;99.90;;;;;;5059764;28;20369;-76
2023/04/28 07:49:04;;;;;;;12.87;6.40;;;8.30;99.90;;;;;;5059891;28;20290;-76
2023/04/28 07:51:30;;;;;;;11.15;6.82;;;8.30;99.90;;;;;;5076872;28;20036;-76
2023/04/28 07:53:56;;;;;;;12.10;7.00;;;8.40;99.90;;;;;;5075784;28;20047;-76
2023/04/28 07:56:22;;;;;;;14.73;6.93;;;8.40;99.90;;;;;;5076245;28;20036;-76
2023/04/28 07:58:48;;;;;;;12.20;7.00;;;8.40;99.90;;;;;;5042617;28;20407;-77
2023/04/28 08:01:13;;;;;;;14.27;7.25;;;8.50;99.90;;;;;;5076124;28;20044;-76
2023/04/28 08:03:39;;;;;;;13.13;7.68;;;8.60;99.90;;;;;;5075866;28;20040;-76
2023/04/28 08:06:06;;;;;;;13.05;6.93;;;8.60;99.90;;;;;;5076335;28;20068;-74
2023/04/28 08:08:32;;;;;;;11.38;6.95;;;8.70;99.90;;;;;;5076209;28;20127;-75
2023/04/28 08:10:58;;;;;;;14.68;6.50;;;8.70;99.90;;;;;;5059115;28;20044;-75
2023/04/28 08:13:24;;;;;;;13.23;8.02;;;8.70;99.90;;;;;;5059244;28;20051;-76
2023/04/28 08:15:50;;;;;;;11.98;7.18;;;8.70;99.90;;;;;;5059213;28;20040;-75
2023/04/28 08:18:16;;;;;;;12.05;6.85;;;8.80;99.90;;;;;;5075525;28;20040;-75
2023/04/28 08:20:41;;;;;;;12.73;7.15;;;8.70;99.90;;;;;;5042109;28;20101;-76
2023/04/28 08:23:08;;;;;;;11.80;7.03;;;8.80;99.90;;;;;;5058742;28;20036;-76
2023/04/28 08:25:34;;;;;;;14.45;7.10;;;8.80;99.90;;;;;;5075625;28;20043;-76
2023/04/28 08:28:02;;;;;;;16.35;7.78;;;8.80;99.90;;;;;;5074465;28;20092;-75
2023/04/28 08:30:28;;;;;;;13.30;6.57;;;8.90;99.90;;;;;;5058214;28;20082;-76
2023/04/28 08:32:54;;;;;;;13.73;7.05;;;8.90;99.90;;;;;;5075102;28;20071;-76
2023/04/28 08:35:19;;;;;;;12.88;6.55;;;8.90;99.90;;;;;;5058221;28;20040;-76
2023/04/28 08:37:48;;;;;;;13.40;7.35;;;9.00;99.90;;;;;;5058202;28;20044;-75
2023/04/28 08:40:14;;;;;;;13.30;6.65;;;9.00;99.90;;;;;;5058755;28;20039;-75
2023/04/28 08:42:40;;;;;;;14.52;7.43;;;9.00;99.90;;;;;;5058381;28;20382;-76
2023/04/28 08:45:07;;;;;;;15.50;7.97;;;9.00;99.90;;;;;;5088682;28;20052;-75
2023/04/28 08:47:38;;;;;;;12.63;7.45;;;9.00;99.90;;;;;;5074950;28;20047;-75
2023/04/28 08:50:06;;;;;;;11.70;7.25;;;9.00;99.90;;;;;;5073212;28;20055;-75
2023/04/28 08:52:32;;;;;;;12.80;7.40;;;9.00;99.90;;;;;;5074968;28;20081;-76
2023/04/28 08:55:01;;;;;;;12.45;7.10;;;9.00;99.90;;;;;;5074507;28;20126;-75
2023/04/28 08:57:33;;;;;;;15.30;7.75;;;9.00;99.90;;;;;;5075151;28;20036;-76
2023/04/28 08:59:59;;;;;;;17.55;7.88;;;9.10;99.90;;;;;;5074813;28;20032;-76
2023/04/28 09:02:25;;;;;;;14.25;7.45;;;9.10;99.90;;;;;;5075216;28;20412;-75
2023/04/28 09:04:51;;;;;;;14.98;7.47;;;9.20;99.90;;;;;;5058243;28;20040;-75
2023/04/28 09:07:16;;;;;;;13.35;7.43;;;9.30;99.90;;;;;;5041930;28;20047;-75
2023/04/28 09:09:44;;;;;;;13.05;7.38;;;9.40;99.90;;;;;;5074943;28;20044;-76
2023/04/28 09:12:10;;;;;;;15.05;7.18;;;9.60;99.90;;;;;;5058062;28;20124;-75
2023/04/28 09:14:37;;;;;;;11.75;7.35;;;9.80;99.90;;;;;;5058312;28;20082;-74
2023/04/28 09:17:10;;;;;;;13.05;7.32;;;9.90;99.90;;;;;;5063545;28;20053;-74
2023/04/28 09:19:37;;;;;;;15.93;7.65;;;10.00;99.90;;;;;;5052865;28;20076;-74
2023/04/28 09:22:05;;;;;;;12.45;7.28;;;10.00;99.90;;;;;;5051243;28;20120;-76
2023/04/28 09:24:31;;;;;;;12.93;7.35;;;10.10;99.90;;;;;;5053183;28;20182;-75
2023/04/28 09:27:03;;;;;;;12.45;7.07;;;10.20;99.90;;;;;;5050841;28;20076;-75
2023/04/28 09:29:30;;;;;;;15.18;6.97;;;10.30;99.90;;;;;;5051209;28;20045;-75
2023/04/28 09:32:16;;;;;;;14.80;7.93;;;10.40;99.90;;;;;;5060370;28;20167;-75
2023/04/28 09:34:47;;;;;;;12.90;6.65;;;10.50;99.90;;;;;;5048531;28;20054;-75
2023/04/28 09:37:21;;;;;;;14.50;8.25;;;10.70;99.90;;;;;;5069902;28;20060;-76
2023/04/28 09:39:49;;;;;;;11.00;6.40;;;10.80;99.90;;;;;;5054513;28;20052;-75
2023/04/28 09:42:34;;;;;;;12.23;7.00;;;10.90;99.90;;;;;;5064670;28;20074;-76
2023/04/28 09:45:13;;;;;;;10.02;6.50;;;11.20;99.90;;;;;;5044944;28;20087;-76
2023/04/28 09:47:45;;;;;;;11.02;6.93;;;11.40;99.90;;;;;;5049045;28;20072;-75
2023/04/28 09:50:16;;;;;;;12.63;7.57;;;11.50;99.90;;;;;;5051626;28;20431;-75
2023/04/28 09:52:44;;;;;;;12.65;7.13;;;11.80;99.90;;;;;;5053292;28;20045;-75
2023/04/28 09:55:11;;;;;;;13.63;7.30;;;12.20;99.90;;;;;;5049292;28;20509;-75
2023/04/28 09:57:38;;;;;;;10.85;7.10;;;12.80;99.90;;;;;;5051258;28;20083;-75
2023/04/28 10:00:07;;;;;;;10.75;7.10;;;13.50;99.90;;;;;;5053052;28;20044;-75
2023/04/28 10:02:35;;;;;;;12.82;6.55;;;13.90;99.90;;;;;;5049904;28;20040;-75
2023/04/28 10:05:02;;;;;;;14.95;7.13;;;13.80;99.90;;;;;;5049791;28;20095;-76
2023/04/28 10:07:29;;;;;;;12.27;6.43;;;13.90;99.90;;;;;;5035798;28;20098;-76
2023/04/28 10:09:55;;;;;;;10.70;6.60;;;13.80;99.90;;;;;;5050759;28;20052;-76
2023/04/28 10:12:22;;;;;;;11.55;6.88;;;13.70;99.90;;;;;;5048638;28;20049;-76
2023/04/28 10:14:53;;;;;;;11.93;6.82;;;13.60;99.90;;;;;;5064265;28;20036;-75
2023/04/28 10:17:21;;;;;;;12.60;7.18;;;13.50;99.90;;;;;;5042924;28;20088;-77
2023/04/28 10:19:50;;;;;;;13.02;7.22;;;13.40;99.90;;;;;;5050666;28;20123;-76
2023/04/28 10:23:01;;;;;;;15.02;7.07;;;13.30;99.90;;;;;;5050313;28;20040;-76
2023/04/28 10:25:31;;;;;;;11.48;6.95;;;13.20;99.90;;;;;;5050036;28;20052;-76
2023/04/28 10:27:58;;;;;;;12.30;7.60;;;13.30;99.90;;;;;;5065512;28;20118;-75
2023/04/28 10:30:27;;;;;;;13.55;7.18;;;13.20;99.90;;;;;;5070275;28;20563;-76
2023/04/28 10:33:05;;;;;;;10.32;6.65;;;13.10;99.90;;;;;;5053304;28;20102;-77
2023/04/28 10:35:31;;;;;;;12.73;7.40;;;13.10;99.90;;;;;;5058983;28;20032;-76
2023/04/28 10:38:22;;;;;;;11.40;7.72;;;13.00;99.90;;;;;;5049781;28;20029;-75
2023/04/28 10:40:49;;;;;;;11.63;7.45;;;13.00;99.90;;;;;;5049860;28;20052;-75
2023/04/28 10:43:25;;;;;;;12.00;8.05;;;13.20;99.90;;;;;;5063639;28;20040;-76
2023/04/28 10:45:54;;;;;;;15.95;7.38;;;13.20;99.90;;;;;;5053887;28;20474;-76
2023/04/28 10:48:22;;;;;;;13.00;7.72;;;13.10;99.90;;;;;;5061737;28;20064;-76
2023/04/28 10:51:12;;;;;;;16.35;8.13;;;13.00;99.90;;;;;;5060478;28;20036;-76
2023/04/28 10:53:43;;;;;;;15.77;8.27;;;13.00;99.90;;;;;;5069354;28;20043;-76
2023/04/28 10:56:09;;;;;;;12.80;7.55;;;12.90;99.90;;;;;;5069026;28;20036;-75
2023/04/28 10:58:36;;;;;;;13.68;7.15;;;12.80;99.90;;;;;;5069618;28;20063;-75
2023/04/28 11:01:20;;;;;;;11.63;7.45;;;12.80;99.90;;;;;;5062049;28;20386;-76
2023/04/28 11:03:46;;;;;;;12.63;7.55;;;12.60;99.90;;;;;;5055182;28;20132;-77
2023/04/28 11:06:27;;;;;;;12.27;8.20;;;12.60;99.90;;;;;;5035799;28;20171;-76
2023/04/28 11:08:59;;;;;;;14.60;8.20;;;12.70;99.90;;;;;;5047658;28;20048;-75
2023/04/28 11:11:33;;;;;;;14.15;7.82;;;12.60;99.90;;;;;;5048195;28;20053;-76
2023/04/28 11:14:17;;;;;;;14.65;7.85;;;12.50;99.90;;;;;;5049799;28;20045;-76
2023/04/28 11:16:50;;;;;;;12.10;8.50;;;12.40;99.90;;;;;;5048556;28;20049;-76
2023/04/28 11:19:20;;;;;;;14.18;8.23;;;12.40;99.90;;;;;;5048087;28;20119;-75
2023/04/28 11:21:49;;;;;;;14.73;7.85;;;12.40;99.90;;;;;;5048979;28;20379;-75
2023/04/28 11:24:16;;;;;;;14.25;7.95;;;12.40;99.90;;;;;;5032060;28;20041;-76
2023/04/28 11:26:42;;;;;;;13.13;8.38;;;12.50;99.90;;;;;;5048424;28;20049;-76
2023/04/28 11:29:09;;;;;;;12.55;8.30;;;12.50;99.90;;;;;;5048353;28;20045;-76
2023/04/28 11:31:35;;;;;;;12.63;8.27;;;12.60;99.90;;;;;;5032041;28;20044;-76
2023/04/28 11:34:15;;;;;;;13.13;7.70;;;12.50;99.90;;;;;;5047293;28;20037;-75
2023/04/28 11:36:41;;;;;;;16.00;8.32;;;12.50;99.90;;;;;;5030144;28;20499;-75
2023/04/28 11:39:09;;;;;;;14.10;8.35;;;12.50;99.90;;;;;;5030314;28;20116;-74
2023/04/28 11:41:37;;;;;;;13.60;8.48;;;12.40;99.90;;;;;;5046813;28;20040;-77
2023/04/28 11:44:10;;;;;;;13.68;9.38;;;12.40;99.90;;;;;;5046616;28;20048;-76
2023/04/28 11:46:49;;;;;;;14.75;7.95;;;12.50;99.90;;;;;;5047145;28;20041;-76
2023/04/28 11:49:17;;;;;;;12.80;8.50;;;12.50;99.90;;;;;;5047522;28;20044;-76
2023/04/28 11:51:48;;;;;;;11.55;7.82;;;12.50;99.90;;;;;;5047837;28;20116;-76
2023/04/28 11:54:23;;;;;;;16.38;8.88;;;12.50;99.90;;;;;;5048735;28;20494;-76
2023/04/28 11:56:49;;;;;;;13.05;8.10;;;12.50;99.90;;;;;;5032435;28;20044;-75
2023/04/28 11:59:15;;;;;;;;;;;12.60;99.90;;;;;;5032623;28;20124;-75
2023/04/28 12:01:51;;;;;;;11.88;7.43;;;12.60;99.90;;;;;;5048810;28;20378;-76
2023/04/28 12:04:37;;;;;;;11.90;7.95;;;12.80;99.90;;;;;;5031988;28;20047;-76
2023/04/28 12:07:05;;;;;;;10.35;6.88;;;12.90;99.90;;;;;;5031687;28;20596;-76
2023/04/28 12:09:32;;;;;;;12.45;6.53;;;13.00;99.90;;;;;;5048604;28;20040;-76
2023/04/28 12:12:03;;;;;;;10.15;6.90;;;13.10;99.90;;;;;;5048885;28;20474;-75
2023/04/28 12:14:34;;;;;;;12.55;7.68;;;13.00;99.90;;;;;;5032078;28;20505;-75
2023/04/28 12:17:00;;;;;;;11.98;7.88;;;13.00;99.90;;;;;;5055007;28;20044;-75
2023/04/28 12:19:26;;;;;;;;;;;12.90;99.90;;;;;;5066547;28;20057;-76
2023/04/28 12:22:03;;;;;;;12.15;7.22;;;12.90;99.90;;;;;;5047338;28;19916;-75
2023/04/28 12:24:29;;;;;;;14.13;8.07;;;12.90;99.90;;;;;;5061421;28;20052;-75
2023/04/28 12:27:17;;;;;;;13.32;7.10;;;12.90;99.90;;;;;;5052241;28;20037;-75
2023/04/28 12:29:44;;;;;;;;;;;13.00;99.90;;;;;;5059921;28;20175;-78
2023/04/28 12:32:11;;;;;;;13.63;7.90;;;13.00;99.90;;;;;;5035407;28;19952;-76
2023/04/28 12:34:39;;;;;;;11.15;7.32;;;13.00;99.90;;;;;;5040355;28;20486;-76
2023/04/28 12:37:05;;;;;;;14.07;7.57;;;12.90;99.90;;;;;;5071185;28;20100;-75
2023/04/28 12:39:35;;;;;;;10.82;7.68;;;12.90;99.90;;;;;;5054425;28;20040;-76
2023/04/28 12:42:02;;;;;;;12.18;8.02;;;12.90;99.90;;;;;;5051949;28;20032;-74
2023/04/28 12:44:35;;;;;;;11.50;7.63;;;12.90;99.90;;;;;;5051774;28;20048;-75
2023/04/28 12:47:06;;;;;;;11.05;7.57;;;12.90;99.90;;;;;;5064003;28;20036;-74
2023/04/28 12:49:32;;;;;;;11.50;7.68;;;13.00;99.90;;;;;;5040526;28;20071;-75